createdAt,value
2022-08-23T00:01:42.552Z,101147.47
2022-08-23T00:04:13.187Z,101153.53
2022-08-23T00:06:41.554Z,101155.41
2022-08-23T00:09:09.838Z,101155.84
2022-08-23T00:11:47.216Z,101140.41
2022-08-23T00:14:27.185Z,101135.38
2022-08-23T00:16:56.352Z,101138.91
2022-08-23T00:19:24.061Z,101138.50
2022-08-23T00:21:52.842Z,101137.88
2022-08-23T00:24:19.768Z,101136.41
2022-08-23T00:26:58.471Z,101128.06
2022-08-23T00:29:38.329Z,101128.25
2022-08-23T00:32:07.690Z,101132.34
2022-08-23T00:34:35.598Z,101129.47
2022-08-23T00:37:02.664Z,101125.25
2022-08-23T00:39:29.248Z,101126.81
2022-08-23T00:42:44.927Z,101130.06
2022-08-23T00:45:34.222Z,101127.34
2022-08-23T00:48:02.119Z,101124.03
2022-08-23T00:50:43.698Z,101121.31
2022-08-23T00:53:16.316Z,101122.81
2022-08-23T00:55:46.173Z,101121.53
2022-08-23T00:58:18.494Z,101117.38
2022-08-23T01:00:46.451Z,101116.91
2022-08-23T01:03:13.942Z,101118.59
2022-08-23T01:09:22.991Z,101128.38
2022-08-23T01:12:10.912Z,101116.25
2022-08-23T01:14:57.318Z,101106.00
2022-08-23T01:17:41.049Z,101102.47
2022-08-23T01:20:16.809Z,101111.88
2022-08-23T01:22:57.546Z,101107.91
2022-08-23T01:25:27.560Z,101113.53
2022-08-23T01:27:54.145Z,101126.03
2022-08-23T01:30:26.015Z,101125.84
2022-08-23T01:32:56.860Z,101120.41
2022-08-23T01:35:31.275Z,101127.47
2022-08-23T01:37:57.869Z,101126.81
2022-08-23T01:40:24.539Z,101121.22
2022-08-23T01:42:51.058Z,101129.69
2022-08-23T01:45:17.624Z,101118.44
2022-08-23T01:47:44.119Z,101125.53
2022-08-23T01:50:12.921Z,101123.94
2022-08-23T01:52:57.304Z,101128.03
2022-08-23T01:55:24.676Z,101121.09
2022-08-23T01:57:55.616Z,101123.41
2022-08-23T02:00:25.695Z,101114.66
2022-08-23T02:02:52.414Z,101130.97
2022-08-23T02:05:19.505Z,101121.94
2022-08-23T02:07:47.035Z,101114.03
2022-08-23T02:10:13.890Z,101118.81
2022-08-23T02:12:40.639Z,101116.75
2022-08-23T02:15:07.904Z,101118.00
2022-08-23T02:17:34.967Z,101119.44
2022-08-23T02:20:03.026Z,101103.75
2022-08-23T02:22:29.500Z,101112.09
2022-08-23T02:24:56.038Z,101106.47
2022-08-23T02:27:23.085Z,101104.38
2022-08-23T02:29:52.129Z,101108.75
2022-08-23T02:32:20.023Z,101105.09
2022-08-23T02:34:51.255Z,101095.94
2022-08-23T02:37:31.911Z,101092.50
2022-08-23T02:39:58.497Z,101098.88
2022-08-23T02:42:25.042Z,101102.69
2022-08-23T02:44:51.521Z,101110.88
2022-08-23T02:47:18.161Z,101101.38
2022-08-23T02:49:44.628Z,101102.31
2022-08-23T02:52:11.236Z,101112.41
2022-08-23T02:54:37.923Z,101116.31
2022-08-23T02:57:05.221Z,101119.16
2022-08-23T02:59:31.693Z,101127.50
2022-08-23T03:01:58.279Z,101121.88
2022-08-23T03:04:25.555Z,101124.84
2022-08-23T03:06:52.722Z,101122.19
2022-08-23T03:09:19.459Z,101134.09
2022-08-23T03:11:47.622Z,101130.72
2022-08-23T03:14:14.322Z,101137.47
2022-08-23T03:16:41.657Z,101132.88
2022-08-23T03:19:08.546Z,101136.53
2022-08-23T03:21:35.182Z,101135.47
2022-08-23T03:24:02.672Z,101137.34
2022-08-23T03:26:33.373Z,101136.03
2022-08-23T03:28:59.942Z,101139.91
2022-08-23T03:31:26.741Z,101141.06
2022-08-23T03:33:58.097Z,101146.59
2022-08-23T03:36:27.934Z,101139.19
2022-08-23T03:38:55.521Z,101144.75
2022-08-23T03:41:22.136Z,101136.72
2022-08-23T03:43:48.640Z,101147.81
2022-08-23T03:46:22.990Z,101146.97
2022-08-23T03:48:57.866Z,101148.41
2022-08-23T03:51:25.297Z,101150.34
2022-08-23T03:53:52.218Z,101155.88
2022-08-23T03:56:33.363Z,101148.91
2022-08-23T03:59:03.248Z,101151.47
2022-08-23T04:01:29.772Z,101160.97
2022-08-23T04:03:59.882Z,101151.91
2022-08-23T04:06:27.852Z,101153.91
2022-08-23T04:08:55.308Z,101149.19
2022-08-23T04:11:23.264Z,101145.72
2022-08-23T04:13:50.206Z,101151.19
2022-08-23T04:16:18.935Z,101149.69
2022-08-23T04:18:45.905Z,101151.84
2022-08-23T04:21:19.738Z,101148.84
2022-08-23T04:23:46.200Z,101148.25
2022-08-23T04:26:12.680Z,101146.28
2022-08-23T04:28:40.079Z,101143.56
2022-08-23T04:31:06.901Z,101153.03
2022-08-23T04:33:34.366Z,101156.56
2022-08-23T04:36:02.046Z,101147.00
2022-08-23T04:38:29.157Z,101152.19
2022-08-23T04:41:15.120Z,101159.19
2022-08-23T04:43:43.980Z,101162.34
2022-08-23T04:46:11.213Z,101155.56
2022-08-23T04:48:37.682Z,101155.38
2022-08-23T04:51:04.195Z,101163.94
2022-08-23T04:53:32.839Z,101166.75
2022-08-23T04:55:59.308Z,101166.22
2022-08-23T04:58:25.798Z,101171.13
2022-08-23T05:00:52.719Z,101173.41
2022-08-23T05:03:19.922Z,101176.88
2022-08-23T05:08:13.386Z,101183.13
2022-08-23T05:10:40.169Z,101181.75
2022-08-23T05:13:06.688Z,101178.66
2022-08-23T05:15:33.165Z,101179.19
2022-08-23T05:17:59.766Z,101179.94
2022-08-23T05:20:26.454Z,101189.25
2022-08-23T05:22:52.942Z,101184.84
2022-08-23T05:25:19.530Z,101186.91
2022-08-23T05:27:46.435Z,101184.31
2022-08-23T05:30:15.442Z,101188.97
2022-08-23T05:32:42.350Z,101187.97
2022-08-23T05:35:09.380Z,101191.69
2022-08-23T05:37:35.859Z,101193.06
2022-08-23T05:40:02.796Z,101191.34
2022-08-23T05:42:29.388Z,101191.00
2022-08-23T05:44:56.483Z,101195.25
2022-08-23T05:47:23.273Z,101197.22
2022-08-23T05:49:51.553Z,101193.63
2022-08-23T05:52:18.067Z,101188.25
2022-08-23T05:54:44.560Z,101198.53
2022-08-23T05:57:11.448Z,101194.19
2022-08-23T05:59:38.047Z,101193.38
2022-08-23T06:02:04.722Z,101203.47
2022-08-23T06:04:31.268Z,101199.38
2022-08-23T06:06:58.899Z,101203.81
2022-08-23T06:09:26.359Z,101202.03
2022-08-23T06:11:53.089Z,101202.44
2022-08-23T06:14:19.890Z,101209.63
2022-08-23T06:16:48.252Z,101212.75
2022-08-23T06:19:15.596Z,101212.88
2022-08-23T06:21:43.215Z,101206.13
2022-08-23T06:24:10.225Z,101208.22
2022-08-23T06:26:40.239Z,101212.03
2022-08-23T06:29:11.546Z,101210.72
2022-08-23T06:31:46.986Z,101205.38
2022-08-23T06:34:22.204Z,101207.00
2022-08-23T06:36:55.211Z,101207.50
2022-08-23T06:39:24.969Z,101208.28
2022-08-23T06:41:51.890Z,101214.22
2022-08-23T06:44:20.105Z,101214.06
2022-08-23T06:46:48.711Z,101216.13
2022-08-23T06:49:15.597Z,101213.25
2022-08-23T06:51:49.375Z,101218.84
2022-08-23T06:54:19.213Z,101222.69
2022-08-23T06:56:46.611Z,101218.44
2022-08-23T06:59:13.426Z,101222.00
2022-08-23T07:01:45.658Z,101227.44
2022-08-23T07:04:19.783Z,101226.44
2022-08-23T07:06:46.557Z,101226.84
2022-08-23T07:09:13.992Z,101234.34
2022-08-23T07:11:41.183Z,101230.41
2022-08-23T07:14:14.229Z,101229.91
2022-08-23T07:16:52.591Z,101226.78
2022-08-23T07:19:21.893Z,101229.16
2022-08-23T07:21:56.644Z,101230.00
2022-08-23T07:24:23.576Z,101223.75
2022-08-23T07:26:52.038Z,101240.72
2022-08-23T07:29:21.068Z,101226.06
2022-08-23T07:31:54.590Z,101232.53
2022-08-23T07:34:22.814Z,101226.63
2022-08-23T07:36:50.568Z,101228.13
2022-08-23T07:39:18.232Z,101227.34
2022-08-23T07:41:45.077Z,101231.34
2022-08-23T07:44:12.715Z,101230.28
2022-08-23T07:46:45.023Z,101235.28
2022-08-23T07:49:12.745Z,101233.00
2022-08-23T07:51:41.573Z,101233.63
2022-08-23T07:54:10.039Z,101231.16
2022-08-23T07:56:37.208Z,101242.03
2022-08-23T07:59:05.537Z,101237.41
2022-08-23T08:01:32.584Z,101226.72
2022-08-23T08:04:02.125Z,101231.13
2022-08-23T08:06:38.462Z,101236.78
2022-08-23T08:09:06.149Z,101239.50
2022-08-23T08:11:35.289Z,101242.88
2022-08-23T08:14:05.238Z,101248.72
2022-08-23T08:16:35.295Z,101250.19
2022-08-23T08:19:04.143Z,101250.81
2022-08-23T08:21:30.727Z,101259.78
2022-08-23T08:23:58.378Z,101254.16
2022-08-23T08:26:25.791Z,101248.50
2022-08-23T08:28:52.475Z,101247.91
2022-08-23T08:31:19.172Z,101247.25
2022-08-23T08:33:45.693Z,101252.47
2022-08-23T08:36:48.991Z,101246.63
2022-08-23T08:39:19.818Z,101243.66
2022-08-23T08:42:05.289Z,101247.25
2022-08-23T08:44:41.458Z,101247.63
2022-08-23T08:47:17.338Z,101250.69
2022-08-23T08:49:56.173Z,101250.78
2022-08-23T08:52:26.846Z,101247.78
2022-08-23T08:55:12.350Z,101247.44
2022-08-23T08:57:43.541Z,101252.03
2022-08-23T09:00:15.319Z,101256.06
2022-08-23T09:02:42.769Z,101253.44
2022-08-23T09:05:27.263Z,101249.09
2022-08-23T09:07:56.450Z,101250.31
2022-08-23T09:10:34.802Z,101251.81
2022-08-23T09:13:42.978Z,101251.81
2022-08-23T09:16:41.185Z,101255.78
2022-08-23T09:19:08.076Z,101255.41
2022-08-23T09:21:47.957Z,101250.94
2022-08-23T09:24:15.293Z,101247.19
2022-08-23T09:26:42.088Z,101250.88
2022-08-23T09:29:22.924Z,101253.47
2022-08-23T09:31:52.996Z,101256.78
2022-08-23T09:34:35.176Z,101246.25
2022-08-23T09:37:11.553Z,101246.78
2022-08-23T09:39:42.065Z,101247.22
2022-08-23T09:42:25.498Z,101251.72
2022-08-23T09:44:52.059Z,101248.94
2022-08-23T09:47:18.651Z,101248.13
2022-08-23T09:49:48.385Z,101245.69
2022-08-23T09:52:21.957Z,101243.06
2022-08-23T09:55:04.769Z,101242.47
2022-08-23T09:57:34.456Z,101244.28
2022-08-23T10:00:21.241Z,101252.22
2022-08-23T10:02:47.865Z,101254.16
2022-08-23T10:05:39.150Z,101249.16
2022-08-23T10:08:10.253Z,101243.84
2022-08-23T10:10:50.131Z,101249.28
2022-08-23T10:13:18.431Z,101247.06
2022-08-23T10:16:27.648Z,101244.06
2022-08-23T10:18:59.744Z,101239.91
2022-08-23T10:21:41.179Z,101248.28
2022-08-23T10:24:29.359Z,101250.03
2022-08-23T10:27:32.654Z,101244.06
2022-08-23T10:30:12.637Z,101234.38
2022-08-23T10:33:00.384Z,101241.19
2022-08-23T10:35:30.661Z,101241.69
2022-08-23T10:38:09.883Z,101232.34
2022-08-23T10:40:46.077Z,101235.66
2022-08-23T10:43:26.179Z,101247.41
2022-08-23T10:45:57.112Z,101237.00
2022-08-23T10:48:29.224Z,101232.91
2022-08-23T10:51:03.779Z,101242.22
2022-08-23T10:53:46.434Z,101241.00
2022-08-23T10:56:20.939Z,101233.41
2022-08-23T10:58:56.071Z,101237.97
2022-08-23T11:01:35.196Z,101239.31
2022-08-23T11:04:14.564Z,101244.91
2022-08-23T11:06:45.752Z,101240.59
2022-08-23T11:09:15.052Z,101242.56
2022-08-23T11:12:07.323Z,101242.44
2022-08-23T11:14:57.996Z,101247.56
2022-08-23T11:17:33.686Z,101237.84
2022-08-23T11:20:04.214Z,101247.41
2022-08-23T11:22:33.601Z,101241.88
2022-08-23T11:25:04.829Z,101246.22
2022-08-23T11:27:35.057Z,101242.84
2022-08-23T11:30:32.545Z,101248.81
2022-08-23T11:33:02.829Z,101249.69
2022-08-23T11:35:43.022Z,101249.44
2022-08-23T11:38:11.533Z,101249.66
2022-08-23T11:40:55.760Z,101255.00
2022-08-23T11:43:25.305Z,101241.19
2022-08-23T11:45:51.915Z,101260.25
2022-08-23T11:48:36.918Z,101257.56
2022-08-23T11:51:18.247Z,101256.75
2022-08-23T11:53:54.936Z,101261.16
2022-08-23T11:56:58.675Z,101254.03
2022-08-23T11:59:41.551Z,101246.41
2022-08-23T12:02:47.296Z,101255.03
2022-08-23T12:05:22.766Z,101262.94
2022-08-23T12:08:13.122Z,101270.13
2022-08-23T12:10:42.597Z,101266.31
2022-08-23T12:13:18.079Z,101261.81
2022-08-23T12:16:17.048Z,101250.16
2022-08-23T12:18:47.943Z,101255.03
2022-08-23T12:21:23.702Z,101247.94
2022-08-23T12:23:56.526Z,101248.88
2022-08-23T12:26:42.708Z,101245.59
2022-08-23T12:29:22.939Z,101246.25
2022-08-23T12:32:02.995Z,101251.16
2022-08-23T12:34:44.534Z,101252.59
2022-08-23T12:37:12.629Z,101254.19
2022-08-23T12:39:48.818Z,101256.03
2022-08-23T12:42:19.950Z,101245.69
2022-08-23T12:44:57.904Z,101242.66
2022-08-23T12:47:24.464Z,101243.50
2022-08-23T12:50:18.675Z,101248.13
2022-08-23T12:53:00.924Z,101243.78
2022-08-23T12:55:34.245Z,101233.72
2022-08-23T12:58:01.393Z,101234.59
2022-08-23T13:00:52.327Z,101229.97
2022-08-23T13:03:28.555Z,101224.63
2022-08-23T13:05:58.152Z,101225.50
2022-08-23T13:08:38.801Z,101216.75
2022-08-23T13:11:08.628Z,101217.63
2022-08-23T13:13:38.647Z,101216.41
2022-08-23T13:16:27.076Z,101215.09
2022-08-23T13:18:56.315Z,101210.31
2022-08-23T13:21:23.101Z,101209.72
2022-08-23T13:23:52.520Z,101211.47
2022-08-23T13:26:24.837Z,101215.94
2022-08-23T13:29:23.898Z,101219.16
2022-08-23T13:31:59.310Z,101219.31
2022-08-23T13:34:34.695Z,101212.63
2022-08-23T13:37:24.212Z,101211.00
2022-08-23T13:39:55.839Z,101214.75
2022-08-23T13:42:36.753Z,101205.97
2022-08-23T13:45:16.109Z,101211.09
2022-08-23T13:47:48.692Z,101212.00
2022-08-23T13:50:25.240Z,101213.88
2022-08-23T13:53:13.417Z,101216.81
2022-08-23T13:55:46.009Z,101212.19
2022-08-23T13:58:24.242Z,101222.50
2022-08-23T14:00:55.390Z,101221.50
2022-08-23T14:03:23.363Z,101219.38
2022-08-23T14:05:49.884Z,101215.31
2022-08-23T14:08:16.433Z,101210.78
2022-08-23T14:10:43.435Z,101212.16
2022-08-23T14:13:11.232Z,101207.44
2022-08-23T14:15:58.461Z,101209.66
2022-08-23T14:18:25.658Z,101208.47
2022-08-23T14:20:52.287Z,101215.78
2022-08-23T14:23:19.071Z,101216.28
2022-08-23T14:25:47.245Z,101213.22
2022-08-23T14:28:13.844Z,101207.47
2022-08-23T14:30:40.382Z,101202.19
2022-08-23T14:33:07.132Z,101206.94
2022-08-23T14:35:33.728Z,101206.84
2022-08-23T14:38:04.506Z,101205.34
2022-08-23T14:40:31.962Z,101200.78
2022-08-23T14:42:58.827Z,101200.19
2022-08-23T14:45:26.009Z,101185.72
2022-08-23T14:47:52.563Z,101182.09
2022-08-23T14:50:19.185Z,101185.88
2022-08-23T14:52:46.764Z,101177.28
2022-08-23T14:55:15.318Z,101186.50
2022-08-23T14:57:42.158Z,101178.53
2022-08-23T15:00:13.824Z,101188.88
2022-08-23T15:02:44.359Z,101188.25
2022-08-23T15:05:12.034Z,101191.81
2022-08-23T15:07:38.768Z,101193.72
2022-08-23T15:10:06.727Z,101187.63
2022-08-23T15:15:22.139Z,101189.72
2022-08-23T15:17:57.619Z,101191.63
2022-08-23T15:20:29.171Z,101189.06
2022-08-23T15:22:56.223Z,101178.97
2022-08-23T15:25:29.053Z,101179.22
2022-08-23T15:27:56.566Z,101182.66
2022-08-23T15:30:24.054Z,101175.78
2022-08-23T15:32:52.798Z,101173.13
2022-08-23T15:35:23.677Z,101174.19
2022-08-23T15:37:50.271Z,101188.31
2022-08-23T15:40:16.839Z,101176.47
2022-08-23T15:42:43.722Z,101188.69
2022-08-23T15:45:10.768Z,101173.25
2022-08-23T15:47:55.100Z,101173.00
2022-08-23T15:50:24.621Z,101177.06
2022-08-23T15:52:51.693Z,101171.28
2022-08-23T15:55:18.367Z,101179.63
2022-08-23T15:57:52.182Z,101169.00
2022-08-23T16:00:21.891Z,101174.34
2022-08-23T16:03:18.648Z,101171.75
2022-08-23T16:05:38.035Z,101172.66
2022-08-23T16:08:06.893Z,101170.16
2022-08-23T16:10:33.982Z,101178.22
2022-08-23T16:13:01.304Z,101172.84
2022-08-23T16:15:27.913Z,101168.94
2022-08-23T16:17:54.519Z,101173.25
2022-08-23T16:20:21.057Z,101176.13
2022-08-23T16:22:47.755Z,101172.38
2022-08-23T16:25:14.494Z,101170.06
2022-08-23T16:27:41.007Z,101165.69
2022-08-23T16:30:08.270Z,101166.50
2022-08-23T16:32:39.192Z,101170.84
2022-08-23T16:35:06.466Z,101172.94
2022-08-23T16:37:32.949Z,101164.69
2022-08-23T16:39:59.918Z,101166.91
2022-08-23T16:42:26.434Z,101175.22
2022-08-23T16:44:52.899Z,101171.66
2022-08-23T16:47:19.580Z,101170.00
2022-08-23T16:49:46.657Z,101174.72
2022-08-23T16:52:13.253Z,101173.72
2022-08-23T16:54:40.017Z,101180.94
2022-08-23T16:57:06.855Z,101170.78
2022-08-23T16:59:40.227Z,101182.03
2022-08-23T17:02:10.603Z,101182.44
2022-08-23T17:04:37.780Z,101181.59
2022-08-23T17:07:04.445Z,101190.09
2022-08-23T17:09:31.007Z,101188.19
2022-08-23T17:12:01.054Z,101194.38
2022-08-23T17:14:28.261Z,101207.03
2022-08-23T17:16:55.245Z,101197.09
2022-08-23T17:19:22.051Z,101198.38
2022-08-23T17:21:48.944Z,101195.50
2022-08-23T17:24:15.462Z,101200.28
2022-08-23T17:26:42.157Z,101206.63
2022-08-23T17:29:09.511Z,101205.22
2022-08-23T17:31:37.709Z,101211.78
2022-08-23T17:34:06.722Z,101207.22
2022-08-23T17:36:50.031Z,101215.13
2022-08-23T17:39:19.466Z,101209.13
2022-08-23T17:41:46.022Z,101217.31
2022-08-23T17:44:12.873Z,101221.72
2022-08-23T17:46:41.799Z,101227.13
2022-08-23T17:49:08.661Z,101227.50
2022-08-23T17:51:36.793Z,101232.63
2022-08-23T17:54:04.495Z,101230.88
2022-08-23T17:56:31.000Z,101237.97
2022-08-23T17:58:57.559Z,101247.31
2022-08-23T18:01:24.248Z,101239.31
2022-08-23T18:03:50.939Z,101247.19
2022-08-23T18:06:17.859Z,101251.00
2022-08-23T18:08:44.989Z,101259.06
2022-08-23T18:11:11.930Z,101259.19
2022-08-23T18:13:38.617Z,101260.28
2022-08-23T18:16:06.327Z,101266.75
2022-08-23T18:18:33.352Z,101267.47
2022-08-23T18:21:05.356Z,101263.81
2022-08-23T18:23:31.965Z,101271.91
2022-08-23T18:25:58.498Z,101279.56
2022-08-23T18:28:25.002Z,101279.00
2022-08-23T18:30:57.500Z,101276.63
2022-08-23T18:33:31.700Z,101286.94
2022-08-23T18:35:58.884Z,101297.91
2022-08-23T18:38:25.414Z,101284.91
2022-08-23T18:40:52.009Z,101288.28
2022-08-23T18:43:22.841Z,101282.44
2022-08-23T18:45:51.224Z,101292.91
2022-08-23T18:48:18.745Z,101289.59
2022-08-23T18:50:46.045Z,101292.53
2022-08-23T18:53:13.228Z,101294.19
2022-08-23T18:55:41.181Z,101299.16
2022-08-23T18:58:10.824Z,101303.22
2022-08-23T19:00:38.572Z,101304.00
2022-08-23T19:03:06.606Z,101307.78
2022-08-23T19:05:40.033Z,101304.66
2022-08-23T19:08:10.491Z,101313.25
2022-08-23T19:10:37.226Z,101313.94
2022-08-23T19:13:04.666Z,101315.16
2022-08-23T19:15:34.055Z,101306.81
2022-08-23T19:18:01.665Z,101301.94
2022-08-23T19:20:29.253Z,101308.53
2022-08-23T19:22:56.919Z,101310.81
2022-08-23T19:25:25.419Z,101323.63
2022-08-23T19:27:52.143Z,101322.84
2022-08-23T19:30:18.700Z,101324.72
2022-08-23T19:32:45.226Z,101330.59
2022-08-23T19:35:13.662Z,101329.97
2022-08-23T19:37:40.244Z,101335.25
2022-08-23T19:40:07.407Z,101333.56
2022-08-23T19:42:36.916Z,101340.47
2022-08-23T19:45:07.680Z,101337.72
2022-08-23T19:47:34.768Z,101337.94
2022-08-23T19:50:03.224Z,101344.06
2022-08-23T19:52:29.768Z,101347.63
2022-08-23T19:55:00.586Z,101345.06
2022-08-23T19:57:33.035Z,101343.00
2022-08-23T20:00:01.150Z,101352.84
2022-08-23T20:02:28.385Z,101354.31
2022-08-23T20:04:55.180Z,101347.22
2022-08-23T20:07:21.709Z,101356.81
2022-08-23T20:09:48.203Z,101353.06
2022-08-23T20:12:18.867Z,101363.34
2022-08-23T20:14:46.024Z,101365.47
2022-08-23T20:17:12.632Z,101367.78
2022-08-23T20:19:41.040Z,101370.69
2022-08-23T20:22:25.974Z,101363.56
2022-08-23T20:24:53.234Z,101369.22
2022-08-23T20:27:29.324Z,101372.16
2022-08-23T20:29:59.525Z,101371.09
2022-08-23T20:32:26.590Z,101368.81
2022-08-23T20:34:53.232Z,101374.47
2022-08-23T20:37:19.756Z,101371.53
2022-08-23T20:39:46.335Z,101376.56
2022-08-23T20:42:12.886Z,101379.72
2022-08-23T20:44:39.380Z,101366.13
2022-08-23T20:47:05.909Z,101377.22
2022-08-23T20:49:32.434Z,101375.72
2022-08-23T20:51:59.011Z,101375.50
2022-08-23T20:54:25.709Z,101383.91
2022-08-23T20:56:52.490Z,101382.44
2022-08-23T20:59:19.996Z,101382.00
2022-08-23T21:01:46.990Z,101385.53
2022-08-23T21:04:13.608Z,101382.81
2022-08-23T21:06:45.376Z,101378.59
2022-08-23T21:09:18.965Z,101381.34
2022-08-23T21:11:47.855Z,101382.41
2022-08-23T21:14:16.385Z,101379.84
2022-08-23T21:16:44.141Z,101377.75
2022-08-23T21:19:10.833Z,101372.50
2022-08-23T21:21:38.825Z,101371.47
2022-08-23T21:24:07.339Z,101374.84
2022-08-23T21:26:34.556Z,101373.16
2022-08-23T21:29:01.387Z,101371.06
2022-08-23T21:31:27.994Z,101376.72
2022-08-23T21:33:55.215Z,101378.38
2022-08-23T21:36:23.289Z,101376.72
2022-08-23T21:38:50.205Z,101368.53
2022-08-23T21:41:35.882Z,101370.00
2022-08-23T21:44:05.659Z,101376.91
2022-08-23T21:46:32.723Z,101374.78
2022-08-23T21:49:00.275Z,101366.00
2022-08-23T21:51:26.785Z,101361.16
2022-08-23T21:53:53.459Z,101377.28
2022-08-23T21:56:20.632Z,101366.78
2022-08-23T21:58:50.406Z,101374.34
2022-08-23T22:01:18.574Z,101371.16
2022-08-23T22:03:45.370Z,101365.28
2022-08-23T22:06:14.165Z,101364.03
2022-08-23T22:08:41.850Z,101363.78
2022-08-23T22:11:08.521Z,101365.88
2022-08-23T22:13:35.939Z,101359.63
2022-08-23T22:16:02.793Z,101361.25
2022-08-23T22:18:30.970Z,101359.59
2022-08-23T22:20:58.204Z,101357.72
2022-08-23T22:23:29.274Z,101354.16
2022-08-23T22:26:01.006Z,101364.81
2022-08-23T22:28:32.540Z,101357.25
2022-08-23T22:31:00.944Z,101362.00
2022-08-23T22:33:27.701Z,101358.03
2022-08-23T22:35:54.565Z,101356.13
2022-08-23T22:38:21.051Z,101354.22
2022-08-23T22:40:52.230Z,101354.84
2022-08-23T22:43:19.937Z,101357.94
2022-08-23T22:45:55.664Z,101356.50
2022-08-23T22:48:23.326Z,101355.22
2022-08-23T22:50:50.048Z,101353.16
2022-08-23T22:53:17.853Z,101363.16
2022-08-23T22:55:50.809Z,101360.44
2022-08-23T22:58:17.589Z,101362.78
2022-08-23T23:00:44.526Z,101363.31
2022-08-23T23:03:11.041Z,101365.06
2022-08-23T23:05:37.592Z,101362.16
2022-08-23T23:08:23.364Z,101360.53
2022-08-23T23:10:50.011Z,101361.53
2022-08-23T23:13:16.602Z,101359.25
2022-08-23T23:15:43.703Z,101364.94
2022-08-23T23:18:10.436Z,101363.66
2022-08-23T23:20:37.889Z,101366.81
2022-08-23T23:23:15.803Z,101362.03
2022-08-23T23:25:43.425Z,101365.00
2022-08-23T23:28:10.141Z,101365.78
2022-08-23T23:30:36.838Z,101366.59
2022-08-23T23:33:03.584Z,101366.16
2022-08-23T23:35:30.122Z,101354.22
2022-08-23T23:37:57.794Z,101358.81
2022-08-23T23:40:25.972Z,101360.91
2022-08-23T23:42:53.309Z,101361.47
2022-08-23T23:45:20.758Z,101356.25
2022-08-23T23:47:47.273Z,101356.25
2022-08-23T23:50:14.338Z,101347.78
2022-08-23T23:52:41.419Z,101359.31
2022-08-23T23:55:10.912Z,101357.97
2022-08-23T23:57:37.705Z,101353.16
